Aeroporto :
LOGIN :

Iscrizione | Disclaimer

   EN    FR    IT 

 










Sommario :    VFR   VFR Marginale   IFR   IFR Intensivo   IFR Molto Intensivo
Visibilità : 
Base nubi : 
>= 8 km
>= 3000ft
5 / 8 km
1000 / 3000 ft
1500m / 5 km
500 / 1000 ft
800 / 1500m
200 / 500 ft
< 800m
< 200 ft
Simboli :   Temporali  Nebbia  Neve Forte  Precipitazioni Forti  Vento > 20 kt
SIGMETs :   Varie  Temporali  Ghiacco  Turbolenza  Onda orograficha  Ceneri Vulcaniche






- Altitudine del aeroporto : 359 ft
- Codice IATA : BVA


LFOB - Beauvais

ULTIMO METAR :
  • 031830Z AUTO 02005KT 360V060 9999 FEW024/// ///TCU 16/13 Q1002 TEMPO 36020G30KT 3000 TSRA BKN030CB

METARs OBSOLETI :
  • 031800Z AUTO 04011KT 7000 -RA FEW028/// SCT060/// BKN070/// ///CB 16/14 Q1002 TEMPO 36020G30KT 3000 TSRA
  • 031730Z AUTO 34011KT 3900 RA BR VCTS ///CB 16/13 Q1003 TEMPO 36020G30KT
  • 031700Z AUTO 36014KT 9999 TS ///CB 19/10 Q1002 TEMPO VRB15G30KT 4000 TSRA
  • 031630Z AUTO 36016KT 9999 ///CB 19/11 Q1002 TEMPO VRB15G30KT 4000 TSRA
  • 031600Z AUTO 34019KT 9999 ///CB 21/12 Q1003 TEMPO VRB15G30KT 4000 TSRA

TAF TAF LFOB
Valido dal 03 a 18 ore il 04 a 18 ore UTC


031700Z 0318/0418 36012KT 9999 SCT030
PROB40
TEMPO 0318/0323 36020G30KT 3000 TSRA BKN030CB
PROB30
TEMPO 0410/0415 36015G25KT 4000 SHRA BKN030TCU
BECMG 0416/0418 30012KT
ATIS : +33 3 44 11 49 28



MetMap, La meteo Aeronautica in un colpo d'occhio ! - Copyright ORBIFLY Dicembre 2007 - Disclaimer

ORBIFLY MET'MAP TEAM :

Programmazione e sviluppo : Alexandra Zaïnal
Concezione : Baudouin d'Aumeries
Aiuto per la programmazione : Marc-Olivier Méhu
Supporto tecnico e logistico : Manuel Goepfert
Aiuto per la traduzione : Arnaldo La Scala

Contatto : metmap@orbifly.com




FONTI E CREDITI :

   NOAA